Omaha, NE

6:17 AM CDT on July 23, 2017 (GMT -0500)
Bellevue North | | Change Station
Active Advisory: Special Statement

Elev 1089 ft 41.19 °N, 95.93 °W | Updated 12 minutes ago

Mostly Cloudy
Mostly Cloudy
71.4 °F
Feels Like 71.4 °F
N
0.0
Wind Variable Wind from NE

Today
High -- | Low -- °F
--% Chance of Precip.
Yesterday
High -- | Low -- °F
Precip. -- in
Pressure 29.92 in
Visibility 7.0 miles
Clouds Clear
Dew Point 70 °F
Humidity 96%
Rainfall 0.00 in
Snow Depth Not available.
6:10 AM 8:48 PM
New Moon, 0% visible
METAR KOFF 231056Z AUTO 32003KT 7SM CLR 19/19 A2993 RMK AO2 VIS 1/2 RWY30 SLP131 T01940191 $
Pressure 29.92 in
Visibility 7.0 miles
Clouds Clear
Dew Point 70 °F
Humidity 96%
Rainfall 0.00 in
Snow Depth Not available.
6:10 AM 8:48 PM
New Moon, 0% visible
METAR KOFF 231056Z AUTO 32003KT 7SM CLR 19/19 A2993 RMK AO2 VIS 1/2 RWY30 SLP131 T01940191 $

Get Your Daily Forecast Email!

Thanks for signing up!

Be on the lookout for a verification email in your inbox.

You'll start receiving severe weather alerts in your inbox..

×

10-Day Weather Forecast

Almanac

Astronomy

Jul. 23, 2017 Rise Set
Actual Time
Civil Twilight
Nautical Twilight
Astronomical Twilight
Moon
Length of Visible Light
Length of Day
Tomorrow will be .
, % of the Moon is Illuminated

Today's Extremes

State Highs State Lows

Community

WunderPhotos

Category 6

Welcome to Category 6. This is the collective home for Weather Underground's featured writeups by Dr. Jeff Masters (right), Bob Henson (left), Chris Burt, and other regular contributors.

Nearby

Air Quality

  Air Quality AQ Index Pollutant
Not available.

Snow Depth

Station Depth Elevation

Earthquake Activity

City Distance Mag. Time & Date
Minimum magnitude displayed is 2.5.

Coastal Water Temperatures

Place Temperature

Stations

Nearby Weather Stations

Station Location Temp. Windchill Dew Point Humidity Wind Precip. Elev Updated Type
                   

Watches & Warnings

Special Statement
Issued: 4:54 AM CDT Jul. 23, 2017 – National Weather Service

... Areas of fog this morning...

Areas of fog will occur into mid morning, mainly across western
Iowa and in eastern Nebraska near the Missouri River. The fog may
be locally dense. Drivers are urged to use extra caution.


454 am CDT sun Jul 23 2017

... Areas of fog this morning...

Areas of fog will occur into mid morning, mainly across western
Iowa and in eastern Nebraska near the Missouri River. The fog may
be locally dense. Drivers are urged to use extra caution.